sensor_id;sensor_type;location;lat;lon;timestamp;temperature;humidity
19033;DHT22;9649;51.042;13.804;2024-02-21T00:04:25;8.90;1.00
19033;DHT22;9649;51.042;13.804;2024-02-21T00:09:42;8.90;1.00
19033;DHT22;9649;51.042;13.804;2024-02-21T00:14:57;8.90;1.00
19033;DHT22;9649;51.042;13.804;2024-02-21T00:20:27;8.90;1.00
19033;DHT22;9649;51.042;13.804;2024-02-21T00:26:17;8.90;1.00
19033;DHT22;9649;51.042;13.804;2024-02-21T00:31:25;9.00;1.00
19033;DHT22;9649;51.042;13.804;2024-02-21T00:36:51;9.10;99.90
19033;DHT22;9649;51.042;13.804;2024-02-21T00:42:38;9.20;57.50
19033;DHT22;9649;51.042;13.804;2024-02-21T00:47:53;9.10;99.90
19033;DHT22;9649;51.042;13.804;2024-02-21T00:53:37;9.20;25.70
19033;DHT22;9649;51.042;13.804;2024-02-21T00:59:06;9.10;99.90
19033;DHT22;9649;51.042;13.804;2024-02-21T01:04:26;9.00;99.90
19033;DHT22;9649;51.042;13.804;2024-02-21T01:09:53;9.10;99.90
19033;DHT22;9649;51.042;13.804;2024-02-21T01:15:32;9.00;99.90
19033;DHT22;9649;51.042;13.804;2024-02-21T01:21:26;9.00;99.90
19033;DHT22;9649;51.042;13.804;2024-02-21T01:27:03;8.90;99.90
19033;DHT22;9649;51.042;13.804;2024-02-21T01:32:52;8.80;99.90
19033;DHT22;9649;51.042;13.804;2024-02-21T01:38:23;8.90;1.00
19033;DHT22;9649;51.042;13.804;2024-02-21T01:43:59;8.90;99.90
19033;DHT22;9649;51.042;13.804;2024-02-21T01:55:02;8.80;1.00
19033;DHT22;9649;51.042;13.804;2024-02-21T02:01:06;8.80;1.00
19033;DHT22;9649;51.042;13.804;2024-02-21T02:07:04;8.60;1.00
19033;DHT22;9649;51.042;13.804;2024-02-21T02:13:08;8.30;83.00
19033;DHT22;9649;51.042;13.804;2024-02-21T02:18:55;7.90;99.90
19033;DHT22;9649;51.042;13.804;2024-02-21T02:41:55;8.40;1.00
19033;DHT22;9649;51.042;13.804;2024-02-21T03:16:05;8.40;99.90
19033;DHT22;9649;51.042;13.804;2024-02-21T03:22:22;8.50;1.00
19033;DHT22;9649;51.042;13.804;2024-02-21T03:34:00;8.20;99.90
19033;DHT22;9649;51.042;13.804;2024-02-21T03:58:27;8.00;99.90
19033;DHT22;9649;51.042;13.804;2024-02-21T04:03:59;8.20;90.80
19033;DHT22;9649;51.042;13.804;2024-02-21T04:15:08;8.40;99.90
19033;DHT22;9649;51.042;13.804;2024-02-21T04:21:37;8.20;1.00
19033;DHT22;9649;51.042;13.804;2024-02-21T04:27:30;8.20;1.00
19033;DHT22;9649;51.042;13.804;2024-02-21T07:36:27;9.40;1.00
19033;DHT22;9649;51.042;13.804;2024-02-21T08:01:36;11.30;99.90
19033;DHT22;9649;51.042;13.804;2024-02-21T08:07:15;11.00;99.90
19033;DHT22;9649;51.042;13.804;2024-02-21T09:17:08;10.90;99.90
19033;DHT22;9649;51.042;13.804;2024-02-21T09:49:02;10.60;1.00
19033;DHT22;9649;51.042;13.804;2024-02-21T09:54:56;10.50;1.00
19033;DHT22;9649;51.042;13.804;2024-02-21T10:07:23;10.50;1.00
19033;DHT22;9649;51.042;13.804;2024-02-21T10:39:25;10.90;1.00
19033;DHT22;9649;51.042;13.804;2024-02-21T11:24:06;11.10;99.90
19033;DHT22;9649;51.042;13.804;2024-02-21T11:37:21;11.20;99.90
19033;DHT22;9649;51.042;13.804;2024-02-21T11:43:20;11.40;99.90
19033;DHT22;9649;51.042;13.804;2024-02-21T11:49:55;11.80;43.90
19033;DHT22;9649;51.042;13.804;2024-02-21T11:58:13;12.10;1.00
19033;DHT22;9649;51.042;13.804;2024-02-21T12:26:22;14.00;1.00
19033;DHT22;9649;51.042;13.804;2024-02-21T12:32:14;15.10;1.00
19033;DHT22;9649;51.042;13.804;2024-02-21T12:40:43;14.70;1.00
19033;DHT22;9649;51.042;13.804;2024-02-21T12:56:50;18.70;1.00
19033;DHT22;9649;51.042;13.804;2024-02-21T13:02:25;20.30;99.90
19033;DHT22;9649;51.042;13.804;2024-02-21T13:08:47;19.90;99.90
19033;DHT22;9649;51.042;13.804;2024-02-21T14:45:23;19.70;99.90
19033;DHT22;9649;51.042;13.804;2024-02-21T14:51:15;18.80;99.90
19033;DHT22;9649;51.042;13.804;2024-02-21T14:56:44;18.00;99.90
19033;DHT22;9649;51.042;13.804;2024-02-21T15:02:31;17.80;99.90
19033;DHT22;9649;51.042;13.804;2024-02-21T15:08:11;17.60;99.90
19033;DHT22;9649;51.042;13.804;2024-02-21T15:13:28;17.30;99.90
19033;DHT22;9649;51.042;13.804;2024-02-21T15:19:05;16.30;99.90
19033;DHT22;9649;51.042;13.804;2024-02-21T15:24:55;17.10;99.90
19033;DHT22;9649;51.042;13.804;2024-02-21T15:30:57;18.00;99.90
19033;DHT22;9649;51.042;13.804;2024-02-21T15:36:12;16.90;99.90
19033;DHT22;9649;51.042;13.804;2024-02-21T15:41:41;16.00;99.90
19033;DHT22;9649;51.042;13.804;2024-02-21T16:42:05;10.90;1.00
19033;DHT22;9649;51.042;13.804;2024-02-21T16:47:08;11.10;1.00
19033;DHT22;9649;51.042;13.804;2024-02-21T16:52:11;11.00;1.00
19033;DHT22;9649;51.042;13.804;2024-02-21T16:57:18;10.80;1.00
19033;DHT22;9649;51.042;13.804;2024-02-21T17:02:20;10.60;99.90
19033;DHT22;9649;51.042;13.804;2024-02-21T17:07:23;10.30;99.90
19033;DHT22;9649;51.042;13.804;2024-02-21T17:12:27;10.20;1.00
19033;DHT22;9649;51.042;13.804;2024-02-21T17:17:30;10.00;42.80
19033;DHT22;9649;51.042;13.804;2024-02-21T17:22:33;9.80;1.00
19033;DHT22;9649;51.042;13.804;2024-02-21T17:27:37;9.60;1.00
19033;DHT22;9649;51.042;13.804;2024-02-21T17:32:40;9.30;1.00
19033;DHT22;9649;51.042;13.804;2024-02-21T17:37:46;8.80;1.00
19033;DHT22;9649;51.042;13.804;2024-02-21T17:43:04;8.30;99.90
19033;DHT22;9649;51.042;13.804;2024-02-21T17:48:07;8.20;99.90
19033;DHT22;9649;51.042;13.804;2024-02-21T17:53:10;8.40;99.90
19033;DHT22;9649;51.042;13.804;2024-02-21T17:58:15;8.70;1.00
19033;DHT22;9649;51.042;13.804;2024-02-21T18:03:18;8.50;1.00
19033;DHT22;9649;51.042;13.804;2024-02-21T18:08:21;8.50;1.00
19033;DHT22;9649;51.042;13.804;2024-02-21T18:13:26;8.50;1.00
19033;DHT22;9649;51.042;13.804;2024-02-21T18:18:32;8.60;1.00
19033;DHT22;9649;51.042;13.804;2024-02-21T18:23:36;8.30;99.90
19033;DHT22;9649;51.042;13.804;2024-02-21T18:28:41;8.10;1.00
19033;DHT22;9649;51.042;13.804;2024-02-21T18:33:50;8.00;1.00
19033;DHT22;9649;51.042;13.804;2024-02-21T18:38:53;7.90;1.00
19033;DHT22;9649;51.042;13.804;2024-02-21T18:43:58;8.00;1.00
19033;DHT22;9649;51.042;13.804;2024-02-21T18:49:02;8.00;1.00
19033;DHT22;9649;51.042;13.804;2024-02-21T18:54:05;8.50;95.60
19033;DHT22;9649;51.042;13.804;2024-02-21T18:59:12;8.60;1.00
19033;DHT22;9649;51.042;13.804;2024-02-21T19:04:17;8.70;1.00
19033;DHT22;9649;51.042;13.804;2024-02-21T19:09:20;8.70;1.00
19033;DHT22;9649;51.042;13.804;2024-02-21T19:14:26;8.70;99.90
19033;DHT22;9649;51.042;13.804;2024-02-21T19:19:29;8.80;99.90
19033;DHT22;9649;51.042;13.804;2024-02-21T19:24:32;8.80;1.00
19033;DHT22;9649;51.042;13.804;2024-02-21T19:29:36;9.00;1.00
19033;DHT22;9649;51.042;13.804;2024-02-21T19:34:39;9.10;1.00
19033;DHT22;9649;51.042;13.804;2024-02-21T19:39:43;9.20;1.00
19033;DHT22;9649;51.042;13.804;2024-02-21T19:44:48;9.30;1.00
19033;DHT22;9649;51.042;13.804;2024-02-21T19:49:51;9.40;99.90
19033;DHT22;9649;51.042;13.804;2024-02-21T19:54:57;9.50;99.90
19033;DHT22;9649;51.042;13.804;2024-02-21T20:00:05;9.60;82.10
19033;DHT22;9649;51.042;13.804;2024-02-21T20:05:11;9.80;1.00
19033;DHT22;9649;51.042;13.804;2024-02-21T20:10:17;10.00;1.00
19033;DHT22;9649;51.042;13.804;2024-02-21T20:15:31;10.00;1.00
19033;DHT22;9649;51.042;13.804;2024-02-21T20:20:35;9.90;1.00
19033;DHT22;9649;51.042;13.804;2024-02-21T20:25:45;10.20;1.00
19033;DHT22;9649;51.042;13.804;2024-02-21T20:31:01;10.30;1.00
19033;DHT22;9649;51.042;13.804;2024-02-21T20:36:08;10.40;1.00
19033;DHT22;9649;51.042;13.804;2024-02-21T20:41:20;10.20;1.00
19033;DHT22;9649;51.042;13.804;2024-02-21T20:58:25;10.00;1.00
19033;DHT22;9649;51.042;13.804;2024-02-21T21:03:32;9.70;1.00
19033;DHT22;9649;51.042;13.804;2024-02-21T21:08:40;9.80;1.00
19033;DHT22;9649;51.042;13.804;2024-02-21T21:13:43;9.50;99.90
19033;DHT22;9649;51.042;13.804;2024-02-21T21:18:49;9.40;99.90
19033;DHT22;9649;51.042;13.804;2024-02-21T21:23:55;9.60;99.90
19033;DHT22;9649;51.042;13.804;2024-02-21T21:28:58;9.70;96.20
19033;DHT22;9649;51.042;13.804;2024-02-21T21:34:01;10.00;1.00
19033;DHT22;9649;51.042;13.804;2024-02-21T21:39:06;10.00;1.00
19033;DHT22;9649;51.042;13.804;2024-02-21T21:44:08;10.00;1.00
19033;DHT22;9649;51.042;13.804;2024-02-21T21:49:12;10.00;1.00
19033;DHT22;9649;51.042;13.804;2024-02-21T21:54:16;10.00;1.00
19033;DHT22;9649;51.042;13.804;2024-02-21T21:59:19;10.00;1.00
19033;DHT22;9649;51.042;13.804;2024-02-21T22:04:22;10.10;1.00
19033;DHT22;9649;51.042;13.804;2024-02-21T22:09:26;10.10;1.00
19033;DHT22;9649;51.042;13.804;2024-02-21T22:14:29;10.20;1.00
19033;DHT22;9649;51.042;13.804;2024-02-21T22:19:32;10.20;1.00
19033;DHT22;9649;51.042;13.804;2024-02-21T22:24:36;10.20;1.00
19033;DHT22;9649;51.042;13.804;2024-02-21T22:29:39;10.30;1.00
19033;DHT22;9649;51.042;13.804;2024-02-21T22:34:42;10.20;1.00
19033;DHT22;9649;51.042;13.804;2024-02-21T22:39:46;10.20;1.00
19033;DHT22;9649;51.042;13.804;2024-02-21T22:44:49;10.30;1.00
19033;DHT22;9649;51.042;13.804;2024-02-21T22:49:52;10.50;1.00
19033;DHT22;9649;51.042;13.804;2024-02-21T22:54:56;10.40;1.00
19033;DHT22;9649;51.042;13.804;2024-02-21T22:59:59;10.50;1.00
19033;DHT22;9649;51.042;13.804;2024-02-21T23:05:03;10.50;1.00
19033;DHT22;9649;51.042;13.804;2024-02-21T23:10:09;10.50;1.00
19033;DHT22;9649;51.042;13.804;2024-02-21T23:15:13;10.40;1.00
19033;DHT22;9649;51.042;13.804;2024-02-21T23:20:16;10.30;1.00
19033;DHT22;9649;51.042;13.804;2024-02-21T23:25:20;10.40;1.00
19033;DHT22;9649;51.042;13.804;2024-02-21T23:30:25;10.50;1.00
19033;DHT22;9649;51.042;13.804;2024-02-21T23:35:28;10.40;1.00
19033;DHT22;9649;51.042;13.804;2024-02-21T23:40:32;10.50;1.00
19033;DHT22;9649;51.042;13.804;2024-02-21T23:45:35;10.70;1.00
19033;DHT22;9649;51.042;13.804;2024-02-21T23:50:37;10.70;1.00
19033;DHT22;9649;51.042;13.804;2024-02-21T23:55:42;10.60;1.00
